Time;durP1;ratioP1;P1;durP2;ratioP2;P2;SDS_P1;SDS_P2;PMS_P1;PMS_P2;Temp;Humidity;BMP_temperature;BMP_pressure;BME280_temperature;BME280_humidity;BME280_pressure;Samples;Min_cycle;Max_cycle;Signal;HPM_P1;HPM_P2
2023/05/27 00:00:07;;;;;;;7.68;2.28;;;9.20;99.90;;;;;;5043724;28;20283;-64
2023/05/27 00:02:34;;;;;;;7.43;2.65;;;9.20;99.90;;;;;;5010255;28;20551;-64
2023/05/27 00:05:01;;;;;;;14.30;3.38;;;9.20;99.90;;;;;;5033723;28;20205;-64
2023/05/27 00:07:29;;;;;;;6.72;2.70;;;9.20;99.90;;;;;;5040571;28;20212;-64
2023/05/27 00:09:56;;;;;;;10.10;2.92;;;9.20;99.90;;;;;;5023966;28;20754;-63
2023/05/27 00:12:22;;;;;;;8.15;2.88;;;9.20;99.90;;;;;;5042298;28;20220;-64
2023/05/27 00:14:49;;;;;;;9.05;3.28;;;9.10;99.90;;;;;;5031199;28;20212;-64
2023/05/27 00:17:17;;;;;;;7.65;2.60;;;9.20;99.90;;;;;;5011494;28;20300;-64
2023/05/27 00:19:44;;;;;;;8.13;2.90;;;9.20;99.90;;;;;;5040525;28;20190;-64
2023/05/27 00:22:11;;;;;;;11.13;2.65;;;9.10;99.90;;;;;;5033000;28;20731;-64
2023/05/27 00:24:41;;;;;;;9.73;3.13;;;9.10;99.90;;;;;;5028854;28;20239;-64
2023/05/27 00:27:08;;;;;;;9.63;3.35;;;9.00;99.90;;;;;;5038048;28;20216;-64
2023/05/27 00:29:35;;;;;;;8.52;2.83;;;8.90;99.90;;;;;;5026840;28;20297;-64
2023/05/27 00:32:03;;;;;;;11.40;3.25;;;8.90;99.90;;;;;;5038654;28;20232;-64
2023/05/27 00:34:30;;;;;;;8.38;3.20;;;9.00;99.90;;;;;;5020866;28;20776;-64
2023/05/27 00:36:57;;;;;;;10.80;3.28;;;8.90;99.90;;;;;;5030246;28;20217;-64
2023/05/27 00:39:24;;;;;;;12.52;3.33;;;8.90;99.90;;;;;;5026439;28;20197;-64
2023/05/27 00:41:52;;;;;;;12.23;3.50;;;8.90;99.90;;;;;;5046056;28;20196;-64
2023/05/27 00:44:19;;;;;;;9.68;3.28;;;9.00;99.90;;;;;;5031652;28;20827;-65
2023/05/27 00:46:48;;;;;;;14.55;3.13;;;9.00;99.90;;;;;;5039419;28;20201;-64
2023/05/27 00:49:15;;;;;;;16.15;2.92;;;9.00;99.90;;;;;;5008671;28;20216;-64
2023/05/27 00:51:42;;;;;;;12.13;4.03;;;8.90;99.90;;;;;;5034076;28;20228;-64
2023/05/27 00:54:10;;;;;;;11.80;3.75;;;8.90;99.90;;;;;;5038777;28;20206;-64
2023/05/27 00:56:37;;;;;;;7.90;3.25;;;8.90;99.90;;;;;;5035771;28;20201;-64
2023/05/27 00:59:05;;;;;;;15.60;3.53;;;8.80;99.90;;;;;;5040825;28;20205;-63
2023/05/27 01:01:33;;;;;;;9.35;3.58;;;8.80;99.90;;;;;;5020575;28;20644;-64
2023/05/27 01:04:01;;;;;;;8.23;3.30;;;8.80;99.90;;;;;;5007060;28;20213;-64
2023/05/27 01:06:40;;;;;;;11.23;3.33;;;8.90;99.90;;;;;;5030472;28;20317;-64
2023/05/27 01:09:12;;;;;;;12.15;3.47;;;8.80;99.90;;;;;;5040475;28;20212;-63
2023/05/27 01:11:43;;;;;;;7.68;3.45;;;8.80;99.90;;;;;;5021909;28;20232;-64
2023/05/27 01:14:15;;;;;;;6.25;3.10;;;8.70;99.90;;;;;;5039252;28;20204;-64
2023/05/27 01:16:44;;;;;;;14.57;3.72;;;8.70;99.90;;;;;;5028546;28;20223;-64
2023/05/27 01:19:16;;;;;;;8.18;3.08;;;8.70;99.90;;;;;;5009762;28;20244;-64
2023/05/27 01:21:48;;;;;;;10.98;3.97;;;8.70;99.90;;;;;;5029172;28;20283;-64
2023/05/27 01:24:16;;;;;;;6.97;2.80;;;8.70;99.90;;;;;;5038958;28;20689;-64
2023/05/27 01:26:43;;;;;;;8.43;3.65;;;8.70;99.90;;;;;;5027006;28;20676;-64
2023/05/27 01:29:10;;;;;;;9.43;2.88;;;8.60;99.90;;;;;;5041698;28;20201;-64
2023/05/27 01:31:43;;;;;;;4.25;2.72;;;8.60;99.90;;;;;;5019351;28;20713;-64
2023/05/27 01:34:14;;;;;;;4.45;2.20;;;8.60;99.90;;;;;;5037617;28;20232;-64
2023/05/27 01:36:45;;;;;;;7.18;2.60;;;8.60;99.90;;;;;;5006176;28;20394;-64
2023/05/27 01:39:13;;;;;;;4.40;2.38;;;8.50;99.90;;;;;;5026150;28;20197;-64
2023/05/27 01:41:43;;;;;;;2.80;1.98;;;8.40;99.90;;;;;;5022169;28;20856;-64
2023/05/27 01:44:11;;;;;;;4.40;1.83;;;8.30;99.90;;;;;;5035390;28;20207;-64
2023/05/27 01:46:38;;;;;;;3.22;2.15;;;8.10;99.90;;;;;;5019422;28;20689;-64
2023/05/27 01:49:05;;;;;;;4.35;2.42;;;8.10;99.90;;;;;;5030907;28;20945;-64
2023/05/27 01:51:32;;;;;;;4.22;2.10;;;8.00;99.90;;;;;;5005703;28;20232;-64
2023/05/27 01:53:58;;;;;;;3.03;2.10;;;8.00;99.90;;;;;;5012220;28;20208;-64
2023/05/27 01:56:26;;;;;;;7.55;3.47;;;8.10;99.90;;;;;;5026029;28;20203;-63
2023/05/27 01:58:54;;;;;;;3.38;2.10;;;8.10;99.90;;;;;;5042205;28;20193;-64
2023/05/27 02:01:21;;;;;;;6.27;2.33;;;8.10;99.90;;;;;;5037753;28;20564;-64
2023/05/27 02:03:48;;;;;;;14.40;2.88;;;8.10;99.90;;;;;;5042419;28;20208;-64
2023/05/27 02:06:15;;;;;;;5.07;2.67;;;8.10;99.90;;;;;;5005487;28;20197;-64
2023/05/27 02:08:42;;;;;;;4.80;2.57;;;8.10;99.90;;;;;;5023227;28;20209;-64
2023/05/27 02:11:09;;;;;;;5.10;3.10;;;8.10;99.90;;;;;;5026130;28;20213;-64
2023/05/27 02:13:36;;;;;;;5.72;2.28;;;8.10;99.90;;;;;;5030241;28;20200;-64
2023/05/27 02:16:04;;;;;;;7.10;2.87;;;8.20;99.90;;;;;;5038682;28;20207;-64
2023/05/27 02:18:32;;;;;;;11.80;3.38;;;8.20;99.90;;;;;;5038850;28;20201;-64
2023/05/27 02:21:05;;;;;;;5.83;2.43;;;8.30;99.90;;;;;;5016083;28;20295;-64
2023/05/27 02:23:32;;;;;;;10.32;3.15;;;8.30;99.90;;;;;;5032966;28;20245;-64
2023/05/27 02:25:58;;;;;;;7.18;2.65;;;8.30;99.90;;;;;;5020193;28;20196;-65
2023/05/27 02:28:25;;;;;;;5.40;2.75;;;8.20;99.90;;;;;;5027937;28;20199;-64
2023/05/27 02:30:52;;;;;;;9.80;3.40;;;8.30;99.90;;;;;;5037142;28;20710;-64
2023/05/27 02:33:20;;;;;;;10.52;3.22;;;8.30;99.90;;;;;;5033719;28;20418;-64
2023/05/27 02:35:47;;;;;;;14.43;3.05;;;8.20;99.90;;;;;;5033213;28;20678;-64
2023/05/27 02:38:14;;;;;;;15.52;3.38;;;8.20;99.90;;;;;;5013152;28;20734;-64
2023/05/27 02:40:41;;;;;;;10.30;3.47;;;8.10;99.90;;;;;;5016361;28;20209;-63
2023/05/27 02:43:08;;;;;;;9.88;3.30;;;8.10;99.90;;;;;;5033952;28;21544;-63
2023/05/27 02:45:34;;;;;;;9.87;2.80;;;8.10;99.90;;;;;;5027699;28;20285;-64
2023/05/27 02:48:02;;;;;;;8.40;3.03;;;8.20;99.90;;;;;;5033730;28;20216;-64
2023/05/27 02:50:30;;;;;;;6.97;2.87;;;8.10;99.90;;;;;;5038775;28;20196;-64
2023/05/27 02:52:57;;;;;;;9.57;3.33;;;8.10;99.90;;;;;;5002695;28;20229;-64
2023/05/27 02:55:24;;;;;;;7.10;3.10;;;8.20;99.90;;;;;;5025536;28;20239;-64
2023/05/27 02:57:51;;;;;;;10.87;2.77;;;8.10;99.90;;;;;;5025201;28;20193;-64
2023/05/27 03:00:18;;;;;;;8.77;3.20;;;8.30;99.90;;;;;;5019715;28;20266;-63
2023/05/27 03:02:44;;;;;;;7.73;2.97;;;8.20;99.90;;;;;;5039148;28;20582;-64
2023/05/27 03:05:11;;;;;;;5.60;2.97;;;8.30;99.90;;;;;;5033670;28;20528;-64
2023/05/27 03:07:41;;;;;;;12.43;3.35;;;8.30;99.90;;;;;;5042356;28;20880;-63
2023/05/27 03:10:08;;;;;;;8.70;3.00;;;8.20;99.90;;;;;;5006873;28;20240;-64
2023/05/27 03:12:35;;;;;;;7.22;2.92;;;8.20;99.90;;;;;;5012434;28;20444;-64
2023/05/27 03:15:02;;;;;;;5.57;2.67;;;8.20;99.90;;;;;;5029093;28;20237;-64
2023/05/27 03:17:29;;;;;;;6.60;3.40;;;8.20;99.90;;;;;;5035596;28;20193;-63
2023/05/27 03:19:55;;;;;;;9.82;3.42;;;8.10;99.90;;;;;;5039919;28;20209;-64
2023/05/27 03:22:22;;;;;;;12.17;4.07;;;8.00;99.90;;;;;;5039038;28;20197;-64
2023/05/27 03:24:51;;;;;;;11.97;4.20;;;7.90;99.90;;;;;;5009155;28;20223;-64
2023/05/27 03:27:18;;;;;;;8.10;3.83;;;8.00;99.90;;;;;;5032045;28;20196;-64
2023/05/27 03:29:45;;;;;;;10.00;3.77;;;8.10;99.90;;;;;;5036364;28;20323;-64
2023/05/27 03:32:12;;;;;;;7.37;3.97;;;8.00;99.90;;;;;;5027470;28;20225;-64
2023/05/27 03:34:39;;;;;;;6.70;3.47;;;8.00;99.90;;;;;;5022740;28;20259;-64
2023/05/27 03:37:05;;;;;;;9.90;3.10;;;7.80;99.90;;;;;;5041899;28;20603;-64
2023/05/27 03:39:32;;;;;;;10.37;3.27;;;7.80;99.90;;;;;;5003844;28;20206;-64
2023/05/27 03:42:00;;;;;;;6.35;3.00;;;7.90;99.90;;;;;;5039967;28;20208;-64
2023/05/27 03:44:27;;;;;;;8.90;3.33;;;7.80;99.90;;;;;;5026836;28;20220;-63
2023/05/27 03:46:55;;;;;;;6.30;2.43;;;8.00;99.90;;;;;;5028381;28;20205;-64
2023/05/27 03:49:21;;;;;;;5.13;2.50;;;7.90;99.90;;;;;;5027662;28;20190;-64
2023/05/27 03:51:48;;;;;;;4.23;2.53;;;7.80;99.90;;;;;;5037079;28;20229;-64
2023/05/27 03:54:15;;;;;;;8.47;2.83;;;7.80;99.90;;;;;;5025907;28;20198;-64
2023/05/27 03:56:42;;;;;;;4.87;2.43;;;8.00;99.90;;;;;;5028106;28;20201;-63
2023/05/27 03:59:11;;;;;;;5.27;2.67;;;7.90;99.90;;;;;;5028822;28;20201;-64
2023/05/27 04:01:38;;;;;;;11.37;3.27;;;8.00;99.90;;;;;;5032598;28;20411;-64
2023/05/27 04:04:05;;;;;;;6.17;3.07;;;7.90;99.90;;;;;;5041537;28;20201;-63
2023/05/27 04:06:33;;;;;;;4.85;2.47;;;7.80;99.90;;;;;;5025876;28;20202;-63
2023/05/27 04:08:59;;;;;;;5.00;2.63;;;8.00;99.90;;;;;;5041890;28;20207;-64
2023/05/27 04:11:28;;;;;;;4.90;2.40;;;8.00;99.90;;;;;;5008046;28;20205;-63
2023/05/27 04:13:55;;;;;;;7.27;3.30;;;8.00;99.90;;;;;;5030937;28;20229;-64
2023/05/27 04:16:25;;;;;;;4.53;2.67;;;8.10;99.90;;;;;;5037208;28;20220;-64
2023/05/27 04:18:52;;;;;;;10.83;3.03;;;8.10;99.90;;;;;;5031916;28;20671;-63
2023/05/27 04:21:19;;;;;;;9.93;3.37;;;8.10;99.90;;;;;;5035208;28;20212;-64
2023/05/27 04:23:46;;;;;;;11.95;3.05;;;8.00;99.90;;;;;;5038420;28;20209;-64
2023/05/27 04:26:14;;;;;;;8.93;3.10;;;8.30;99.90;;;;;;5030143;28;20239;-64
2023/05/27 04:28:41;;;;;;;12.45;3.25;;;8.20;99.90;;;;;;5024807;28;20951;-64
2023/05/27 04:31:12;;;;;;;7.90;2.65;;;8.20;99.90;;;;;;5021764;28;20767;-64
2023/05/27 04:33:40;;;;;;;7.38;2.97;;;8.20;99.90;;;;;;5022123;28;20328;-64
2023/05/27 04:36:08;;;;;;;5.47;2.92;;;8.30;99.90;;;;;;5039915;28;20910;-64
2023/05/27 04:38:34;;;;;;;3.23;2.30;;;8.30;99.90;;;;;;5029204;28;20442;-64
2023/05/27 04:41:01;;;;;;;11.98;4.22;;;8.40;99.90;;;;;;5038969;28;20204;-64
2023/05/27 04:43:29;;;;;;;7.03;2.85;;;8.40;99.90;;;;;;5002993;28;20236;-64
2023/05/27 04:45:56;;;;;;;8.30;3.65;;;8.40;99.90;;;;;;5024426;28;20201;-64
2023/05/27 04:48:23;;;;;;;9.10;3.27;;;8.40;99.90;;;;;;5026100;28;20193;-64
2023/05/27 04:50:53;;;;;;;11.80;3.42;;;8.50;99.90;;;;;;5034540;28;20948;-64
2023/05/27 04:53:20;;;;;;;10.57;2.95;;;8.40;99.90;;;;;;5024368;28;20309;-64
2023/05/27 04:55:46;;;;;;;13.73;3.42;;;8.60;99.90;;;;;;5039874;28;20212;-64
2023/05/27 04:58:13;;;;;;;9.40;3.17;;;8.70;99.90;;;;;;5003787;28;20217;-64
2023/05/27 05:00:49;;;;;;;14.10;3.38;;;8.70;99.90;;;;;;5027192;28;20785;-64
2023/05/27 05:03:20;;;;;;;11.68;3.38;;;8.60;99.90;;;;;;5030184;28;20244;-64
2023/05/27 05:05:48;;;;;;;6.22;2.80;;;8.70;99.90;;;;;;5038203;28;20201;-64
2023/05/27 05:08:16;;;;;;;9.27;3.15;;;8.70;99.90;;;;;;5025945;28;20205;-63
2023/05/27 05:10:43;;;;;;;7.50;3.30;;;8.80;99.90;;;;;;5039881;28;20319;-64
2023/05/27 05:13:10;;;;;;;9.25;2.65;;;8.80;99.90;;;;;;5008498;28;20244;-64
2023/05/27 05:15:37;;;;;;;12.93;3.08;;;8.80;99.90;;;;;;5031942;28;20505;-64
2023/05/27 05:18:04;;;;;;;14.73;3.67;;;8.80;99.90;;;;;;5020635;28;20205;-66
2023/05/27 05:20:31;;;;;;;7.88;3.35;;;8.80;99.90;;;;;;5014551;28;20353;-65
2023/05/27 05:22:58;;;;;;;14.98;3.30;;;8.90;99.90;;;;;;5032216;28;20202;-64
2023/05/27 05:25:26;;;;;;;10.15;3.67;;;8.90;99.90;;;;;;5030355;28;20200;-64
2023/05/27 05:27:54;;;;;;;8.85;3.55;;;9.00;99.90;;;;;;5029575;28;20198;-64
2023/05/27 05:30:21;;;;;;;13.68;3.90;;;9.10;99.90;;;;;;5004018;28;20811;-64
2023/05/27 05:32:48;;;;;;;9.55;3.45;;;9.20;99.90;;;;;;5027534;28;20256;-64
2023/05/27 05:35:15;;;;;;;13.68;4.25;;;9.20;99.90;;;;;;5031853;28;20241;-64
2023/05/27 05:37:42;;;;;;;8.93;3.45;;;9.20;99.90;;;;;;5033770;28;20193;-64
2023/05/27 05:40:10;;;;;;;15.27;3.10;;;9.30;99.90;;;;;;5029951;28;20204;-64
2023/05/27 05:42:38;;;;;;;13.07;3.47;;;9.30;99.90;;;;;;5038873;28;20186;-64
2023/05/27 05:45:07;;;;;;;8.80;3.25;;;9.40;99.90;;;;;;5003794;28;20206;-64
2023/05/27 05:47:33;;;;;;;14.48;3.55;;;9.50;99.90;;;;;;5027325;28;20223;-64
2023/05/27 05:50:00;;;;;;;11.45;3.72;;;9.50;99.90;;;;;;5035204;28;20661;-64
2023/05/27 05:52:27;;;;;;;7.47;3.20;;;9.60;99.90;;;;;;5022595;28;20221;-64
2023/05/27 05:54:54;;;;;;;9.77;4.28;;;9.60;99.90;;;;;;5028791;28;20205;-64
2023/05/27 05:57:20;;;;;;;14.00;3.55;;;9.80;99.90;;;;;;5037996;28;20207;-64
2023/05/27 05:59:49;;;;;;;15.52;4.32;;;9.80;99.90;;;;;;5040614;28;20190;-64
2023/05/27 06:02:16;;;;;;;18.85;4.43;;;9.90;99.90;;;;;;5006175;28;20209;-64
2023/05/27 06:04:42;;;;;;;10.35;3.50;;;10.00;99.90;;;;;;5028331;28;20411;-64
2023/05/27 06:07:09;;;;;;;13.57;3.65;;;10.00;99.90;;;;;;5029875;28;20205;-64
2023/05/27 06:09:36;;;;;;;14.63;3.75;;;10.10;99.90;;;;;;5038280;28;20196;-64
2023/05/27 06:12:03;;;;;;;9.55;3.97;;;10.10;99.90;;;;;;5028255;28;20201;-64
2023/05/27 06:14:30;;;;;;;7.53;3.10;;;10.20;99.90;;;;;;5035538;28;20446;-64
2023/05/27 06:16:58;;;;;;;10.80;3.92;;;10.30;99.90;;;;;;5008973;28;20300;-64
2023/05/27 06:19:25;;;;;;;16.75;4.55;;;10.40;99.90;;;;;;5029900;28;20627;-64
2023/05/27 06:21:52;;;;;;;9.95;3.72;;;10.50;99.90;;;;;;5030751;28;20294;-64
2023/05/27 06:24:19;;;;;;;11.13;3.15;;;10.60;99.90;;;;;;5038507;28;20621;-64
2023/05/27 06:26:46;;;;;;;10.80;3.42;;;10.60;99.90;;;;;;5027606;28;20208;-64
2023/05/27 06:29:13;;;;;;;10.85;3.40;;;10.70;99.90;;;;;;5032316;28;20229;-64
2023/05/27 06:31:40;;;;;;;12.90;3.40;;;10.80;99.90;;;;;;5007369;28;20220;-64
2023/05/27 06:34:08;;;;;;;14.07;3.90;;;10.90;99.90;;;;;;5034230;28;20586;-64
2023/05/27 06:36:35;;;;;;;17.63;3.60;;;11.00;99.90;;;;;;5029107;28;22278;-64
2023/05/27 06:39:03;;;;;;;11.73;3.90;;;11.00;99.90;;;;;;5023223;28;20204;-64
2023/05/27 06:41:30;;;;;;;10.35;2.88;;;11.00;99.90;;;;;;5031497;28;20263;-64
2023/05/27 06:43:57;;;;;;;16.23;3.85;;;11.10;99.90;;;;;;5038115;28;20288;-64
2023/05/27 06:46:23;;;;;;;18.40;4.07;;;11.20;99.90;;;;;;5041985;28;20795;-64
2023/05/27 06:48:50;;;;;;;11.52;3.30;;;11.20;99.90;;;;;;5008161;28;20201;-64
2023/05/27 06:51:19;;;;;;;12.25;3.83;;;11.30;99.90;;;;;;5029187;28;20303;-64
2023/05/27 06:53:46;;;;;;;14.63;3.63;;;11.30;99.90;;;;;;5030961;28;20228;-64
2023/05/27 06:56:12;;;;;;;15.43;3.60;;;11.30;99.90;;;;;;5034778;28;20294;-64
2023/05/27 06:58:41;;;;;;;11.35;3.47;;;11.40;99.90;;;;;;5027287;28;20315;-64
2023/05/27 07:01:08;;;;;;;12.57;3.05;;;11.50;99.90;;;;;;5014524;28;20462;-64
2023/05/27 07:03:35;;;;;;;17.65;4.05;;;11.60;99.90;;;;;;4956475;28;20209;-64
2023/05/27 07:06:02;;;;;;;10.60;3.08;;;11.70;99.90;;;;;;5025304;28;20392;-64
2023/05/27 07:08:30;;;;;;;15.93;3.50;;;11.70;99.90;;;;;;4975449;28;20257;-64
2023/05/27 07:10:57;;;;;;;12.95;3.97;;;11.80;99.90;;;;;;5036168;28;20236;-64
2023/05/27 07:13:24;;;;;;;13.90;3.63;;;11.80;99.90;;;;;;5026173;28;20773;-64
2023/05/27 07:15:51;;;;;;;17.52;4.47;;;11.80;99.90;;;;;;5043510;28;20679;-64
2023/05/27 07:18:18;;;;;;;14.55;3.85;;;11.90;99.90;;;;;;5032457;28;20481;-65
2023/05/27 07:20:45;;;;;;;12.70;3.63;;;12.00;99.90;;;;;;5020100;28;20706;-64
2023/05/27 07:23:11;;;;;;;12.93;3.85;;;12.00;99.90;;;;;;5014665;28;20343;-64
2023/05/27 07:25:40;;;;;;;14.38;3.90;;;12.00;99.90;;;;;;5009503;28;20331;-65
2023/05/27 07:28:06;;;;;;;10.85;3.65;;;12.10;99.90;;;;;;5041482;28;20326;-65
2023/05/27 07:30:33;;;;;;;8.43;3.53;;;12.20;99.90;;;;;;5027573;28;20305;-64
2023/05/27 07:33:00;;;;;;;13.50;3.80;;;12.20;99.90;;;;;;5041321;28;20256;-64
2023/05/27 07:35:27;;;;;;;17.88;4.60;;;12.30;99.90;;;;;;5004194;28;20374;-64
2023/05/27 07:37:54;;;;;;;19.65;4.72;;;12.30;99.90;;;;;;5029786;28;20204;-64
2023/05/27 07:40:21;;;;;;;12.43;4.05;;;12.40;99.90;;;;;;5021580;28;20201;-65
2023/05/27 07:42:49;;;;;;;7.65;3.90;;;12.40;99.90;;;;;;5030267;28;20488;-64
2023/05/27 07:45:16;;;;;;;10.73;3.42;;;12.40;99.90;;;;;;5030349;28;20237;-65
2023/05/27 07:47:43;;;;;;;17.92;4.03;;;12.50;99.90;;;;;;5039194;28;20215;-64
2023/05/27 07:50:10;;;;;;;13.95;3.60;;;12.60;99.90;;;;;;5011202;28;20299;-64
2023/05/27 07:52:37;;;;;;;10.73;3.53;;;12.60;99.90;;;;;;5030527;28;20342;-64
2023/05/27 07:55:05;;;;;;;12.65;4.18;;;12.60;99.90;;;;;;5029164;28;20406;-65
2023/05/27 07:57:32;;;;;;;16.55;4.25;;;12.70;99.90;;;;;;5028153;28;20311;-64
2023/05/27 08:00:00;;;;;;;11.35;3.38;;;12.70;99.90;;;;;;5031029;28;20201;-64
2023/05/27 08:02:27;;;;;;;10.73;3.65;;;12.80;99.90;;;;;;5008539;28;22677;-64
2023/05/27 08:04:54;;;;;;;10.75;3.88;;;12.80;99.90;;;;;;5037558;28;20283;-64
2023/05/27 08:07:21;;;;;;;11.95;3.25;;;12.80;99.90;;;;;;4983904;28;20202;-64
2023/05/27 08:09:48;;;;;;;12.70;3.38;;;12.80;99.90;;;;;;5028560;28;20878;-65
2023/05/27 08:12:15;;;;;;;10.77;4.32;;;12.80;99.90;;;;;;5008972;28;20366;-64
2023/05/27 08:14:42;;;;;;;8.27;3.42;;;12.90;99.90;;;;;;5033113;28;20228;-64
2023/05/27 08:17:10;;;;;;;14.27;3.50;;;13.00;99.90;;;;;;5024503;28;20291;-65
2023/05/27 08:19:37;;;;;;;9.75;3.65;;;13.00;99.90;;;;;;5028496;28;20217;-64
2023/05/27 08:22:08;;;;;;;13.02;3.80;;;13.00;99.90;;;;;;5007799;28;20813;-64
2023/05/27 08:24:35;;;;;;;17.77;4.03;;;12.90;99.90;;;;;;5001555;28;20520;-64
2023/05/27 08:27:02;;;;;;;11.68;4.35;;;13.00;99.90;;;;;;5016724;28;20366;-64
2023/05/27 08:29:30;;;;;;;16.30;4.45;;;13.00;99.90;;;;;;5013652;28;20217;-64
2023/05/27 08:31:58;;;;;;;16.38;3.92;;;13.10;99.90;;;;;;5026333;28;20208;-65
2023/05/27 08:34:27;;;;;;;19.48;4.30;;;13.10;99.90;;;;;;5031357;28;20237;-65
2023/05/27 08:36:54;;;;;;;9.25;3.28;;;13.10;99.90;;;;;;5008013;28;20232;-64
2023/05/27 08:39:21;;;;;;;14.27;3.55;;;13.20;99.90;;;;;;5019980;28;20360;-64
2023/05/27 08:41:48;;;;;;;15.63;5.35;;;13.20;99.90;;;;;;5017066;28;21060;-64
2023/05/27 08:44:14;;;;;;;11.15;3.95;;;13.30;99.90;;;;;;5008793;28;20983;-64
2023/05/27 08:46:42;;;;;;;10.02;3.83;;;13.30;99.90;;;;;;5022022;28;20296;-64
2023/05/27 08:49:09;;;;;;;10.68;4.07;;;13.30;99.90;;;;;;5033537;28;20221;-64
2023/05/27 08:51:40;;;;;;;17.00;4.15;;;13.50;99.90;;;;;;5038193;28;20342;-64
2023/05/27 08:54:08;;;;;;;11.23;3.65;;;13.50;99.90;;;;;;4988361;28;20729;-64
2023/05/27 08:56:36;;;;;;;19.05;4.50;;;13.50;99.90;;;;;;5014525;28;20358;-65
2023/05/27 08:59:03;;;;;;;12.15;4.50;;;13.60;99.90;;;;;;5019203;28;20689;-64
2023/05/27 09:01:32;;;;;;;15.43;4.25;;;13.70;99.90;;;;;;5015109;28;20218;-64
2023/05/27 09:03:59;;;;;;;19.55;4.05;;;13.80;99.90;;;;;;5004745;28;20299;-64
2023/05/27 09:06:27;;;;;;;16.65;3.90;;;13.80;99.90;;;;;;5038676;28;21277;-64
2023/05/27 09:08:55;;;;;;;16.33;4.88;;;13.80;99.90;;;;;;4981230;28;20697;-64
2023/05/27 09:11:23;;;;;;;14.68;4.57;;;13.80;99.90;;;;;;5017895;28;20236;-65
2023/05/27 09:13:50;;;;;;;12.20;4.07;;;13.90;99.90;;;;;;5004175;28;20632;-65
2023/05/27 09:16:21;;;;;;;16.73;4.32;;;13.90;99.90;;;;;;5028268;28;20695;-64
2023/05/27 09:18:48;;;;;;;14.40;4.28;;;13.90;99.90;;;;;;5025831;28;20584;-65
2023/05/27 09:21:15;;;;;;;14.30;4.45;;;14.10;99.90;;;;;;5028284;28;20774;-65
2023/05/27 09:23:42;;;;;;;8.90;3.92;;;14.20;99.90;;;;;;4983758;28;20197;-64
2023/05/27 09:26:11;;;;;;;12.50;4.53;;;14.00;99.90;;;;;;5016453;28;20320;-64
2023/05/27 09:28:39;;;;;;;14.75;4.10;;;14.20;99.90;;;;;;5022068;28;20952;-65
2023/05/27 09:31:09;;;;;;;18.98;4.10;;;14.30;99.90;;;;;;5016018;28;20336;-65
2023/05/27 09:33:38;;;;;;;15.02;4.85;;;14.40;99.90;;;;;;5009346;28;20307;-64
2023/05/27 09:36:06;;;;;;;15.45;4.55;;;14.60;99.90;;;;;;5037277;28;20232;-64
2023/05/27 09:38:34;;;;;;;14.32;4.38;;;14.70;99.90;;;;;;5000397;28;20294;-64
2023/05/27 09:41:02;;;;;;;15.40;4.10;;;14.80;99.90;;;;;;5021534;28;20239;-65
2023/05/27 09:43:31;;;;;;;20.05;4.43;;;14.90;99.90;;;;;;5011104;28;20939;-64
2023/05/27 09:46:01;;;;;;;20.52;4.57;;;15.00;99.90;;;;;;5018033;28;20330;-64
2023/05/27 09:48:30;;;;;;;14.40;4.22;;;15.00;99.90;;;;;;5018056;28;20341;-64
2023/05/27 09:50:58;;;;;;;13.38;4.25;;;15.10;99.90;;;;;;5029425;28;20240;-64
2023/05/27 09:53:25;;;;;;;14.57;4.10;;;15.20;99.90;;;;;;5000368;28;21149;-64
2023/05/27 09:55:53;;;;;;;15.23;5.00;;;15.20;99.90;;;;;;5040691;28;20220;-64
2023/05/27 09:58:22;;;;;;;15.65;4.35;;;15.30;99.90;;;;;;5009869;28;20221;-65
2023/05/27 10:00:50;;;;;;;10.68;4.40;;;15.20;99.90;;;;;;5021064;28;20232;-64
2023/05/27 10:03:18;;;;;;;14.15;4.50;;;15.20;99.90;;;;;;5010831;28;20447;-64
2023/05/27 10:05:47;;;;;;;13.35;4.28;;;15.20;99.90;;;;;;5022226;28;20749;-64
2023/05/27 10:08:14;;;;;;;13.73;3.90;;;15.10;99.90;;;;;;5025122;28;20877;-64
2023/05/27 10:10:41;;;;;;;17.27;5.03;;;15.20;99.90;;;;;;4996676;28;20461;-64
2023/05/27 10:13:09;;;;;;;13.57;4.30;;;15.40;99.90;;;;;;5017534;28;20232;-64
2023/05/27 10:15:36;;;;;;;15.20;4.18;;;15.40;99.90;;;;;;4993169;28;20324;-64
2023/05/27 10:18:09;;;;;;;14.55;4.53;;;15.40;99.90;;;;;;5036269;28;20196;-64
2023/05/27 10:20:38;;;;;;;15.77;4.35;;;15.30;99.90;;;;;;5015251;28;20232;-64
2023/05/27 10:23:12;;;;;;;11.90;4.65;;;15.30;99.90;;;;;;5035383;28;20196;-64
2023/05/27 10:25:40;;;;;;;12.93;3.65;;;15.30;99.90;;;;;;5004138;28;20531;-64
2023/05/27 10:28:07;;;;;;;10.15;4.35;;;15.40;99.90;;;;;;5022856;28;20200;-65
2023/05/27 10:30:44;;;;;;;21.48;4.93;;;15.30;99.90;;;;;;5020439;28;20602;-64
2023/05/27 10:33:13;;;;;;;13.27;4.47;;;15.40;99.90;;;;;;5027992;28;20224;-65
2023/05/27 10:35:41;;;;;;;13.05;4.57;;;15.70;99.90;;;;;;5018236;28;22357;-65
2023/05/27 10:38:16;;;;;;;11.35;4.40;;;15.60;99.90;;;;;;5039484;28;20221;-65
2023/05/27 10:40:43;;;;;;;14.90;4.90;;;15.60;99.90;;;;;;5005622;28;21859;-64
2023/05/27 10:43:16;;;;;;;16.65;4.72;;;15.60;99.90;;;;;;5028992;28;20320;-65
2023/05/27 10:45:43;;;;;;;14.98;4.32;;;15.70;99.90;;;;;;5022605;28;20302;-65
2023/05/27 10:48:18;;;;;;;10.23;4.00;;;15.80;99.90;;;;;;5028824;28;21050;-64
2023/05/27 10:50:51;;;;;;;13.25;5.00;;;16.00;99.90;;;;;;5030951;28;20223;-64
2023/05/27 10:53:20;;;;;;;24.50;4.55;;;16.00;99.90;;;;;;5024781;28;20589;-64
2023/05/27 10:55:50;;;;;;;7.85;4.35;;;16.00;99.90;;;;;;5032095;28;20221;-65
2023/05/27 10:58:17;;;;;;;11.43;3.65;;;15.90;99.90;;;;;;5003867;28;20220;-64
2023/05/27 11:00:46;;;;;;;11.68;4.45;;;16.10;99.90;;;;;;5005055;28;20346;-64
2023/05/27 11:03:22;;;;;;;11.85;4.60;;;16.20;99.90;;;;;;5023642;28;20193;-64
2023/05/27 11:05:58;;;;;;;12.07;4.28;;;16.40;99.90;;;;;;5021207;28;20560;-65
2023/05/27 11:08:25;;;;;;;12.60;3.60;;;16.40;99.90;;;;;;5021459;28;20247;-65
2023/05/27 11:10:57;;;;;;;18.33;4.90;;;16.40;99.90;;;;;;5033273;28;20248;-65
2023/05/27 11:13:31;;;;;;;14.23;4.07;;;16.40;99.90;;;;;;5003879;28;20328;-64
2023/05/27 11:15:57;;;;;;;14.18;4.50;;;16.30;99.90;;;;;;5009161;28;20882;-65
2023/05/27 11:18:26;;;;;;;13.15;4.32;;;16.30;99.90;;;;;;5025559;28;21143;-65
2023/05/27 11:20:52;;;;;;;11.68;4.00;;;16.30;99.90;;;;;;5031946;28;20206;-65
2023/05/27 11:23:21;;;;;;;14.85;4.78;;;16.40;99.90;;;;;;5040941;28;20733;-65
2023/05/27 11:25:48;;;;;;;15.57;4.32;;;16.50;99.90;;;;;;5011950;28;20240;-65
2023/05/27 11:28:16;;;;;;;18.42;3.90;;;16.50;99.90;;;;;;4996440;28;20868;-64
2023/05/27 11:30:44;;;;;;;16.85;4.53;;;16.50;99.90;;;;;;5004206;28;20221;-65
2023/05/27 11:33:11;;;;;;;14.77;4.22;;;16.70;99.90;;;;;;5031800;28;20268;-65
2023/05/27 11:35:39;;;;;;;11.57;3.95;;;16.60;99.90;;;;;;5006645;28;20241;-65
2023/05/27 11:38:06;;;;;;;15.13;4.72;;;16.60;99.90;;;;;;5026548;28;20779;-65
2023/05/27 11:40:38;;;;;;;9.90;3.78;;;16.70;99.90;;;;;;5018527;28;20322;-64
2023/05/27 11:43:05;;;;;;;11.10;3.60;;;16.70;99.90;;;;;;5034945;28;20670;-65
2023/05/27 11:45:36;;;;;;;15.18;4.13;;;16.70;99.90;;;;;;5004238;28;20232;-64
2023/05/27 11:48:03;;;;;;;10.85;3.85;;;16.70;99.90;;;;;;5008672;28;20200;-64
2023/05/27 11:50:30;;;;;;;9.38;3.78;;;16.80;99.90;;;;;;5021790;28;20757;-64
2023/05/27 11:53:03;;;;;;;14.45;4.47;;;16.80;99.90;;;;;;5016670;28;20816;-64
2023/05/27 11:55:32;;;;;;;14.80;4.72;;;16.80;99.90;;;;;;5016472;28;20294;-64
2023/05/27 11:57:59;;;;;;;13.05;4.10;;;17.00;99.90;;;;;;5034067;28;20201;-64
2023/05/27 12:00:25;;;;;;;13.40;3.95;;;17.00;99.90;;;;;;4997544;28;20305;-64
2023/05/27 12:02:52;;;;;;;13.93;3.97;;;16.90;99.90;;;;;;5014756;28;20312;-64
2023/05/27 12:05:19;;;;;;;10.52;3.72;;;16.90;99.90;;;;;;5004269;28;20232;-64
2023/05/27 12:07:46;;;;;;;15.93;4.40;;;16.90;99.90;;;;;;5027140;28;20320;-64
2023/05/27 12:10:15;;;;;;;8.27;3.53;;;17.00;99.90;;;;;;5024108;28;21150;-65
2023/05/27 12:12:44;;;;;;;22.52;4.53;;;17.00;99.90;;;;;;5039551;28;20586;-64
2023/05/27 12:15:11;;;;;;;10.48;3.92;;;17.00;99.90;;;;;;4983031;28;20635;-65
2023/05/27 12:17:38;;;;;;;10.77;4.80;;;17.20;99.90;;;;;;5022587;28;20839;-65
2023/05/27 12:20:06;;;;;;;13.98;4.30;;;17.20;99.90;;;;;;5020308;28;20722;-64
2023/05/27 12:22:33;;;;;;;10.25;4.10;;;17.20;99.90;;;;;;5026595;28;20552;-65
2023/05/27 12:24:59;;;;;;;13.05;3.90;;;17.30;99.90;;;;;;5036694;28;20205;-65
2023/05/27 12:27:28;;;;;;;12.52;3.53;;;17.40;99.90;;;;;;5019485;28;20198;-65
2023/05/27 12:29:54;;;;;;;6.53;3.38;;;17.40;99.90;;;;;;5036412;28;20244;-65
2023/05/27 12:32:21;;;;;;;16.23;5.53;;;17.40;99.90;;;;;;5009011;28;20394;-65
2023/05/27 12:34:48;;;;;;;9.85;3.88;;;17.20;99.90;;;;;;5017653;28;20237;-65
2023/05/27 12:37:16;;;;;;;10.95;3.97;;;17.10;99.90;;;;;;5025725;28;20313;-64
2023/05/27 12:39:43;;;;;;;10.40;3.75;;;17.10;99.90;;;;;;5025645;28;20201;-64
2023/05/27 12:42:10;;;;;;;12.13;3.40;;;17.00;99.90;;;;;;5011110;28;20403;-64
2023/05/27 12:44:38;;;;;;;11.55;4.35;;;17.10;99.90;;;;;;5033329;28;20609;-64
2023/05/27 12:47:06;;;;;;;13.52;4.05;;;17.30;99.90;;;;;;4991593;28;20208;-64